Corsicana, TX

3:43 AM CST on December 27, 2014 (GMT -0600)
Midlothian | Change Station
CLOSE
Current Station
Airport
Location: Midlothian,
Elevation: 712 ft
Nearby Weather Stations

Elev 712 ft 32.46 °N, 96.91 °W | Updated 8 minutes ago

Overcast
Overcast
55 °F
Feels Like 55 °F
N
14
Wind Variable Wind from WNW
Gusts 23 mph

Today
High -- | Low -- °F
--% Chance of Precip.
Yesterday
High -- | Low -- °F
Precip. -- in
7:25 AM 5:28 PM
Waxing Crescent, 35% visible
Pressure 30.01 in
Visibility 1.5 miles
Clouds Mostly Cloudy 200 ft
Mostly Cloudy 1000 ft
Overcast 2700 ft
Dew Point 55 °F
Humidity 100%
Rainfall 0.03 in
Snow Depth Not available.
UV 0 out of 12
Pollen 9.60 out of 12
Air Quality Not available.
Flu Activity Not available.
METAR KJWY 270935Z AUTO 30012G20KT 1 1/2SM BR BKN002 BKN010 OVC027 13/13 A3001 RMK AO2 T01300130

More Conditions Fewer Conditions

Pressure 30.01 in
Visibility 1.5 miles
Clouds Mostly Cloudy 200 ft
Mostly Cloudy 1000 ft
Overcast 2700 ft
Dew Point 55 °F
Humidity 100%
Rainfall 0.03 in
Snow Depth Not available.
UV 0 out of 12
Pollen 9.60 out of 12
Air Quality Not available.
Flu Activity Not available.
METAR KJWY 270935Z AUTO 30012G20KT 1 1/2SM BR BKN002 BKN010 OVC027 13/13 A3001 RMK AO2 T01300130

More Conditions Fewer Conditions

Nowcast | as of 3:05 am CST on December 27, 2014

A cold front will move from a Bonham...Dallas...to Goldthwaite line and reach a line from Emory to Temple by 5 am. Scattered showers will continue near and just ahead of the front while patchy drizzle and fog will prevail out ahead of the front through the pre-dawn hours. A few locations may see brief dense fog that will reduce the visibility below a half mile. Total rainfall amounts will average less than one tenth of an inch for areas that do see rain.

×

10-Day Weather Forecast

Almanac

Astronomy

Dec. 27, 2014 Rise Set
Actual Time
Civil Twilight
Nautical Twilight
Astronomical Twilight
Moon
Length of Visible Light
Length of Day
Tomorrow will be .
, % of the Moon is Illuminated

Today's Extremes

State Highs State Lows

Community

WunderPhotos

Upload Photos

1,780,869 photos uploaded!

WunderBlogs® & News

Nearby

Air Quality

  Air Quality AQ Index Pollutant
Not available.

Snow Depth

Station Depth Elevation

Earthquake Activity

City Distance Mag. Time & Date
Minimum magnitude displayed is 2.5.

Coastal Water Temperatures

Place Temperature

Nearby Weather Stations